createdAt,value
2017-01-30T00:09:07.464Z,91
2017-01-30T00:19:19.000Z,91
2017-01-30T00:29:30.544Z,91
2017-01-30T00:39:42.135Z,91
2017-01-30T00:49:53.641Z,90.8
2017-01-30T01:00:05.155Z,90.6
2017-01-30T01:10:16.737Z,91
2017-01-30T01:20:28.287Z,91
2017-01-30T01:30:39.839Z,90.4
2017-01-30T01:40:51.423Z,90
2017-01-30T01:51:02.996Z,90.7
2017-01-30T02:01:14.577Z,91.1
2017-01-30T02:11:26.117Z,91.3
2017-01-30T02:21:37.683Z,91.9
2017-01-30T02:31:49.218Z,92.7
2017-01-30T02:42:00.808Z,93.4
2017-01-30T02:52:12.407Z,93.9
2017-01-30T03:02:24.042Z,92.9
2017-01-30T03:12:35.706Z,93.1
2017-01-30T03:22:47.243Z,93.1
2017-01-30T03:32:58.858Z,92.7
2017-01-30T03:43:10.410Z,93.2
2017-01-30T03:53:21.986Z,92.9
2017-01-30T04:03:33.560Z,93.9
2017-01-30T04:13:45.166Z,94.7
2017-01-30T04:23:56.699Z,94.2
2017-01-30T04:34:08.249Z,93.1
2017-01-30T04:44:19.715Z,94.2
2017-01-30T04:54:31.124Z,97
2017-01-30T05:04:42.596Z,97.7
2017-01-30T05:14:54.060Z,97.6
2017-01-30T05:25:05.569Z,96.9
2017-01-30T05:35:17.079Z,97.2
2017-01-30T05:45:28.567Z,97.2
2017-01-30T05:55:40.057Z,97.2
2017-01-30T06:05:51.586Z,96.8
2017-01-30T06:16:03.142Z,97
2017-01-30T06:26:14.652Z,99.7
2017-01-30T06:36:26.156Z,100
2017-01-30T06:46:37.669Z,100
2017-01-30T06:56:49.164Z,100
2017-01-30T07:07:00.626Z,100
2017-01-30T07:17:12.128Z,100
2017-01-30T07:27:23.515Z,100
2017-01-30T07:37:34.929Z,100
2017-01-30T07:47:46.293Z,100
2017-01-30T07:57:57.673Z,100
2017-01-30T08:08:09.090Z,100
2017-01-30T08:18:20.591Z,100
2017-01-30T08:28:31.871Z,100
2017-01-30T08:38:43.207Z,100
2017-01-30T08:48:54.608Z,100
2017-01-30T08:59:05.989Z,100
2017-01-30T09:09:17.334Z,100
2017-01-30T09:19:28.624Z,100
2017-01-30T09:29:40.836Z,100
2017-01-30T09:39:51.082Z,100
2017-01-30T09:50:02.268Z,100
2017-01-30T10:00:13.398Z,100
2017-01-30T10:10:24.564Z,100
2017-01-30T10:20:35.653Z,100
2017-01-30T10:30:46.699Z,100
2017-01-30T10:40:57.707Z,100
2017-01-30T10:51:08.699Z,100
2017-01-30T11:01:19.741Z,100
2017-01-30T11:11:30.781Z,100
2017-01-30T11:21:41.795Z,100
2017-01-30T11:31:52.896Z,100
2017-01-30T11:42:03.860Z,100
2017-01-30T11:52:14.871Z,100
2017-01-30T12:02:25.927Z,100
2017-01-30T12:12:36.958Z,100
2017-01-30T12:22:47.964Z,100
2017-01-30T12:32:58.930Z,100
2017-01-30T12:43:09.905Z,100
2017-01-30T12:53:20.878Z,100
2017-01-30T13:03:31.832Z,100
2017-01-30T13:13:42.803Z,100
2017-01-30T13:23:53.748Z,100
2017-01-30T13:34:04.733Z,100
2017-01-30T13:44:15.695Z,100
2017-01-30T13:54:26.690Z,100
2017-01-30T14:04:37.719Z,100
2017-01-30T14:14:48.770Z,100
2017-01-30T14:24:59.806Z,100
2017-01-30T14:35:10.884Z,100
2017-01-30T14:45:21.995Z,100
2017-01-30T14:55:33.127Z,100
2017-01-30T15:05:44.329Z,100
2017-01-30T15:15:55.286Z,100
2017-01-30T15:26:06.360Z,100
2017-01-30T15:36:17.500Z,100
2017-01-30T15:46:28.652Z,100
2017-01-30T15:56:39.801Z,100
2017-01-30T16:06:50.895Z,100
2017-01-30T16:17:02.101Z,100
2017-01-30T16:27:13.272Z,100
2017-01-30T16:37:24.543Z,100
2017-01-30T16:57:47.208Z,100
2017-01-30T17:07:58.549Z,100
2017-01-30T17:18:09.916Z,100
2017-01-30T17:28:21.326Z,100
2017-01-30T17:38:32.795Z,100
2017-01-30T17:48:44.279Z,100
2017-01-30T17:58:55.863Z,100
2017-01-30T18:09:07.495Z,100
2017-01-30T18:19:19.106Z,100
2017-01-30T18:29:30.707Z,100
2017-01-30T18:39:42.383Z,100
2017-01-30T18:49:54.110Z,100
2017-01-30T19:00:05.830Z,100
2017-01-30T19:10:17.509Z,100
2017-01-30T19:20:29.209Z,100
2017-01-30T19:30:40.913Z,100
2017-01-30T19:40:52.626Z,100
2017-01-30T19:51:04.394Z,100
2017-01-30T20:01:16.112Z,100
2017-01-30T20:11:27.841Z,100
2017-01-30T20:21:39.605Z,100
2017-01-30T20:31:51.382Z,100
2017-01-30T20:42:03.207Z,100
2017-01-30T20:52:15.012Z,100
2017-01-30T21:02:26.836Z,100
2017-01-30T21:12:38.617Z,100
2017-01-30T21:22:50.452Z,100
2017-01-30T21:33:02.367Z,100
2017-01-30T21:43:14.134Z,100
2017-01-30T21:53:26.022Z,100
2017-01-30T22:03:37.869Z,100
2017-01-30T22:13:49.708Z,100
2017-01-30T22:24:01.568Z,100
2017-01-30T22:34:13.443Z,100
2017-01-30T22:44:25.280Z,100
2017-01-30T22:54:37.069Z,100
2017-01-30T23:04:48.834Z,100
2017-01-30T23:15:00.651Z,100
2017-01-30T23:25:12.415Z,100
2017-01-30T23:35:24.231Z,100
2017-01-30T23:45:36.072Z,100
2017-01-30T23:55:47.922Z,100
